LIO weather

Limon International Airport
Puerto Limon, Limon, Costa Rica

Public forecast

Using degrees Celsius for public forecast. Weather courtesy of forecast.io.

Current aviation weather report (METAR) for Limon International Airport

Retrieved 2020/05/25 20:00 UTC (1 hour ago):

MRLM 252000Z 06006KT 9999 FEW030 BKN240 31/26 A2976

Aviation forecast (TAF) for Limon International Airport

Retrieved 2020/05/25 18:27 UTC (3 hours ago):

TAF MRLM 251700Z 2518/2618 06005KT 9999 FEW030 BKN200 TX30/2520Z TN22/2611Z BECMG 2523/2601 25004KT TEMPO 2605/2614 DZ BECMG 2615/2617 07006KT